createdAt,value
2019-04-11T00:00:50.470Z,11.80
2019-04-11T00:01:52.682Z,10.20
2019-04-11T00:02:49.091Z,10.80
2019-04-11T00:03:49.416Z,10.40
2019-04-11T00:04:48.926Z,11.00
2019-04-11T00:05:48.914Z,11.90
2019-04-11T00:06:49.905Z,12.90
2019-04-11T00:07:48.897Z,12.00
2019-04-11T00:08:48.899Z,10.60
2019-04-11T00:09:49.310Z,11.70
2019-04-11T00:10:49.200Z,11.70
2019-04-11T00:11:48.857Z,11.20
2019-04-11T00:12:48.845Z,10.40
2019-04-11T00:13:49.501Z,12.10
2019-04-11T00:14:48.820Z,11.20
2019-04-11T00:15:48.867Z,12.50
2019-04-11T00:16:49.875Z,12.50
2019-04-11T00:17:48.797Z,10.20
2019-04-11T00:18:49.219Z,13.30
2019-04-11T00:19:48.791Z,12.50
2019-04-11T00:20:48.756Z,11.30
2019-04-11T00:21:48.947Z,13.40
2019-04-11T00:22:50.108Z,9.70
2019-04-11T00:23:48.728Z,12.30
2019-04-11T00:24:49.186Z,9.90
2019-04-11T00:25:49.574Z,11.00
2019-04-11T00:26:48.733Z,10.70
2019-04-11T00:27:48.934Z,11.70
2019-04-11T00:28:48.689Z,10.50
2019-04-11T00:29:48.680Z,10.70
2019-04-11T00:30:48.653Z,13.20
2019-04-11T00:31:49.546Z,14.40
2019-04-11T00:32:49.689Z,11.20
2019-04-11T00:33:48.758Z,11.60
2019-04-11T00:34:48.637Z,10.00
2019-04-11T00:35:48.605Z,10.70
2019-04-11T00:36:48.590Z,9.50
2019-04-11T00:37:49.522Z,12.10
2019-04-11T00:38:48.568Z,11.90
2019-04-11T00:39:48.561Z,11.20
2019-04-11T00:40:49.139Z,11.30
2019-04-11T00:41:48.537Z,10.50
2019-04-11T00:42:48.539Z,10.10
2019-04-11T00:43:48.517Z,11.70
2019-04-11T00:44:49.445Z,11.30
2019-04-11T00:45:48.759Z,11.50
2019-04-11T00:46:48.881Z,10.50
2019-04-11T00:47:49.053Z,12.00
2019-04-11T00:48:48.462Z,11.90
2019-04-11T00:49:48.523Z,11.20
2019-04-11T00:50:49.567Z,11.80
2019-04-11T00:51:48.430Z,11.90
2019-04-11T00:52:49.565Z,10.80
2019-04-11T00:53:48.406Z,10.50
2019-04-11T00:54:49.103Z,12.40
2019-04-11T00:55:48.427Z,9.80
2019-04-11T00:56:48.514Z,11.60
2019-04-11T00:57:49.443Z,16.20
2019-04-11T00:58:48.356Z,12.50
2019-04-11T00:59:48.819Z,11.00
2019-04-11T01:00:48.351Z,10.10
2019-04-11T01:01:49.934Z,11.10
2019-04-11T01:02:49.517Z,13.80
2019-04-11T01:03:49.470Z,11.50
2019-04-11T01:04:48.776Z,12.20
2019-04-11T01:05:48.298Z,8.90
2019-04-11T01:06:48.270Z,11.20
2019-04-11T01:07:49.191Z,10.20
2019-04-11T01:08:48.258Z,10.60
2019-04-11T01:09:48.604Z,13.50
2019-04-11T01:10:48.245Z,10.70
2019-04-11T01:11:48.219Z,10.40
2019-04-11T01:12:49.777Z,11.90
2019-04-11T01:13:52.391Z,11.00
2019-04-11T01:14:49.182Z,13.70
2019-04-11T01:15:48.966Z,10.70
2019-04-11T01:16:48.588Z,12.50
2019-04-11T01:17:48.159Z,11.10
2019-04-11T01:18:48.139Z,10.50
2019-04-11T01:19:49.046Z,11.00
2019-04-11T01:20:48.120Z,12.60
2019-04-11T01:21:48.826Z,12.40
2019-04-11T01:22:48.713Z,11.40
2019-04-11T01:23:48.089Z,11.80
2019-04-11T01:24:48.178Z,12.50
2019-04-11T01:25:48.555Z,10.40
2019-04-11T01:26:48.084Z,10.90
2019-04-11T01:27:48.050Z,11.60
2019-04-11T01:28:48.880Z,12.30
2019-04-11T01:29:48.024Z,14.80
2019-04-11T01:30:55.595Z,12.00
2019-04-11T01:31:48.010Z,12.60
2019-04-11T01:32:48.663Z,11.10
2019-04-11T01:33:48.387Z,10.70
2019-04-11T01:34:48.757Z,11.50
2019-04-11T01:35:47.962Z,10.60
2019-04-11T01:36:48.035Z,12.40
2019-04-11T01:37:48.174Z,12.60
2019-04-11T01:38:48.430Z,10.00
2019-04-11T01:39:47.932Z,12.20
2019-04-11T01:40:47.910Z,10.50
2019-04-11T01:41:48.864Z,10.90
2019-04-11T01:42:47.899Z,10.10
2019-04-11T01:43:56.418Z,10.00
2019-04-11T01:44:49.297Z,12.30
2019-04-11T01:45:47.858Z,11.40
2019-04-11T01:46:48.576Z,11.00
2019-04-11T01:47:47.970Z,9.50
2019-04-11T01:48:47.962Z,12.90
2019-04-11T01:49:48.239Z,10.40
2019-04-11T01:50:47.805Z,11.90
2019-04-11T01:51:47.812Z,10.70
2019-04-11T01:52:48.750Z,12.40
2019-04-11T01:53:48.736Z,10.70
2019-04-11T01:54:47.981Z,10.80
2019-04-11T01:55:48.358Z,11.60
2019-04-11T01:56:47.761Z,11.30
2019-04-11T01:57:47.733Z,11.30
2019-04-11T01:58:48.877Z,11.70
2019-04-11T01:59:47.943Z,11.30
2019-04-11T02:00:48.713Z,10.60
2019-04-11T02:01:47.733Z,11.60
2019-04-11T02:02:47.678Z,15.20
2019-04-11T02:03:47.671Z,12.30
2019-04-11T02:04:48.112Z,12.30
2019-04-11T02:05:47.646Z,12.00
2019-04-11T02:06:47.876Z,12.10
2019-04-11T02:07:47.653Z,11.30
2019-04-11T02:08:47.615Z,12.60
2019-04-11T02:09:48.449Z,13.10
2019-04-11T02:10:48.674Z,12.00
2019-04-11T02:11:47.744Z,9.90
2019-04-11T02:12:47.714Z,13.20
2019-04-11T02:13:48.171Z,12.00
2019-04-11T02:14:47.985Z,12.50
2019-04-11T02:15:48.384Z,12.60
2019-04-11T02:16:47.539Z,13.10
2019-04-11T02:17:48.724Z,13.00
2019-04-11T02:18:47.758Z,12.70
2019-04-11T02:19:48.077Z,13.40
2019-04-11T02:20:47.490Z,11.00
2019-04-11T02:21:47.486Z,11.60
2019-04-11T02:22:48.683Z,12.50
2019-04-11T02:23:47.666Z,11.40
2019-04-11T02:24:48.003Z,11.20
2019-04-11T02:25:47.454Z,12.60
2019-04-11T02:26:47.430Z,12.10
2019-04-11T02:27:48.390Z,12.20
2019-04-11T02:28:47.428Z,13.30
2019-04-11T02:29:47.402Z,11.30
2019-04-11T02:30:48.441Z,12.10
2019-04-11T02:31:47.375Z,12.70
2019-04-11T02:32:49.351Z,10.40
2019-04-11T02:33:48.809Z,11.70
2019-04-11T02:34:48.674Z,13.50
2019-04-11T02:35:49.211Z,11.70
2019-04-11T02:36:48.929Z,13.00
2019-04-11T02:37:49.584Z,10.80
2019-04-11T02:38:53.460Z,11.50
2019-04-11T02:39:49.389Z,11.50
2019-04-11T02:40:49.090Z,11.90
2019-04-11T02:41:47.531Z,10.70
2019-04-11T02:42:47.628Z,11.80
2019-04-11T02:43:48.913Z,13.30
2019-04-11T02:45:03.507Z,12.50
2019-04-11T02:45:58.077Z,12.90
2019-04-11T02:46:59.888Z,12.60
2019-04-11T02:47:50.779Z,14.20
2019-04-11T02:48:47.370Z,12.30
2019-04-11T02:49:47.728Z,13.30
2019-04-11T02:50:47.831Z,11.30
2019-04-11T02:51:49.053Z,11.40
2019-04-11T02:52:47.457Z,12.40
2019-04-11T02:53:47.393Z,11.60
2019-04-11T02:54:47.417Z,11.60
2019-04-11T02:55:47.439Z,12.40
2019-04-11T02:56:50.206Z,11.10
2019-04-11T02:57:48.296Z,13.30
2019-04-11T02:58:48.275Z,12.90
2019-04-11T02:59:48.918Z,12.50
2019-04-11T03:00:55.909Z,12.60
2019-04-11T03:01:48.608Z,13.30
2019-04-11T03:02:47.875Z,14.00
2019-04-11T03:03:47.437Z,12.60
2019-04-11T03:04:48.129Z,13.50
2019-04-11T03:05:47.120Z,12.00
2019-04-11T03:06:47.965Z,12.50
2019-04-11T03:07:47.736Z,14.80
2019-04-11T03:08:48.820Z,11.90
2019-04-11T03:09:48.827Z,12.20
2019-04-11T03:10:46.982Z,12.90
2019-04-11T03:11:47.824Z,12.20
2019-04-11T03:12:48.405Z,11.70
2019-04-11T03:13:48.531Z,13.90
2019-04-11T03:15:05.421Z,13.20
2019-04-11T03:16:02.185Z,13.50
2019-04-11T03:16:57.601Z,13.00
2019-04-11T03:17:49.403Z,13.00
2019-04-11T03:19:05.607Z,12.30
2019-04-11T03:20:02.767Z,12.70
2019-04-11T03:20:55.383Z,13.20
2019-04-11T03:21:47.866Z,11.70
2019-04-11T03:22:53.026Z,12.90
2019-04-11T03:23:49.326Z,15.70
2019-04-11T03:24:47.057Z,13.80
2019-04-11T03:25:46.988Z,13.70
2019-04-11T03:26:46.878Z,13.80
2019-04-11T03:27:47.528Z,14.30
2019-04-11T03:28:49.528Z,12.70
2019-04-11T03:29:49.357Z,14.10
2019-04-11T03:31:13.127Z,14.20
2019-04-11T03:32:33.457Z,12.10
2019-04-11T03:33:49.722Z,13.10
2019-04-11T03:34:39.839Z,11.10
2019-04-11T03:37:19.483Z,13.30
2019-04-11T03:38:17.474Z,15.90
2019-04-11T03:39:13.107Z,12.30
2019-04-11T03:40:07.996Z,13.50
2019-04-11T03:41:04.307Z,13.90
2019-04-11T03:42:05.853Z,13.00
2019-04-11T03:43:02.860Z,13.20
2019-04-11T03:43:58.204Z,14.80
2019-04-11T03:45:03.400Z,13.80
2019-04-11T03:46:04.051Z,12.70
2019-04-11T03:47:06.793Z,13.40
2019-04-11T03:48:02.450Z,14.30
2019-04-11T03:49:00.154Z,13.30
2019-04-11T03:49:53.233Z,11.90
2019-04-11T03:50:49.051Z,12.30
2019-04-11T03:51:47.991Z,12.30
2019-04-11T03:52:46.732Z,13.20
2019-04-11T03:53:47.250Z,13.20
2019-04-11T03:54:47.508Z,11.20
2019-04-11T03:55:47.451Z,12.50
2019-04-11T03:56:46.487Z,15.20
2019-04-11T03:57:46.980Z,13.10
2019-04-11T03:58:48.083Z,12.60
2019-04-11T03:59:47.846Z,12.80
2019-04-11T04:00:46.859Z,13.40
2019-04-11T04:01:48.226Z,14.30
2019-04-11T04:02:46.821Z,12.40
2019-04-11T04:03:46.755Z,14.40
2019-04-11T04:04:46.385Z,12.20
2019-04-11T04:05:46.374Z,12.80
2019-04-11T04:06:47.884Z,12.70
2019-04-11T04:07:46.631Z,15.30
2019-04-11T04:08:46.659Z,13.70
2019-04-11T04:09:46.347Z,15.00
2019-04-11T04:10:47.722Z,15.20
2019-04-11T04:11:46.917Z,16.50
2019-04-11T04:12:47.523Z,16.10
2019-04-11T04:13:47.742Z,15.40
2019-04-11T04:14:46.741Z,16.40
2019-04-11T04:16:01.798Z,16.70
2019-04-11T04:16:50.217Z,15.80
2019-04-11T04:17:47.678Z,13.60
2019-04-11T04:18:47.699Z,15.50
2019-04-11T04:19:47.345Z,14.00
2019-04-11T04:20:46.263Z,14.80
2019-04-11T04:21:47.047Z,12.50
2019-04-11T04:22:48.086Z,14.40
2019-04-11T04:23:46.204Z,13.50
2019-04-11T04:24:47.556Z,12.70
2019-04-11T04:25:47.326Z,14.70
2019-04-11T04:26:46.153Z,13.10
2019-04-11T04:27:46.831Z,12.60
2019-04-11T04:28:47.574Z,14.40
2019-04-11T04:29:49.601Z,16.30
2019-04-11T04:30:47.160Z,17.60
2019-04-11T04:31:46.671Z,14.30
2019-04-11T04:32:47.122Z,13.20
2019-04-11T04:33:47.672Z,13.60
2019-04-11T04:34:46.479Z,14.90
2019-04-11T04:35:47.508Z,13.90
2019-04-11T04:36:47.256Z,13.50
2019-04-11T04:37:47.467Z,13.50
2019-04-11T04:38:46.447Z,14.30
2019-04-11T04:39:47.836Z,14.90
2019-04-11T04:41:00.366Z,13.00
2019-04-11T04:41:55.401Z,14.20
2019-04-11T04:42:52.075Z,14.70
2019-04-11T04:43:48.280Z,15.00
2019-04-11T04:44:46.686Z,17.40
2019-04-11T04:46:05.130Z,12.90
2019-04-11T04:46:58.589Z,14.40
2019-04-11T04:47:54.258Z,15.70
2019-04-11T04:48:48.890Z,14.20
2019-04-11T04:49:46.536Z,14.70
2019-04-11T04:50:46.792Z,16.50
2019-04-11T04:51:47.650Z,16.80
2019-04-11T04:52:45.873Z,12.60
2019-04-11T04:53:45.863Z,13.30
2019-04-11T04:54:46.582Z,14.80
2019-04-11T04:55:47.703Z,15.20
2019-04-11T04:56:47.316Z,13.70
2019-04-11T04:57:45.821Z,14.00
2019-04-11T04:58:46.751Z,14.10
2019-04-11T04:59:46.935Z,15.40
2019-04-11T05:00:45.821Z,13.50
2019-04-11T05:01:48.063Z,14.60
2019-04-11T05:02:45.770Z,15.10
2019-04-11T05:03:46.784Z,15.90
2019-04-11T05:04:45.931Z,14.90
2019-04-11T05:05:46.565Z,16.60
2019-04-11T05:06:48.164Z,15.20
2019-04-11T05:07:46.839Z,16.50
2019-04-11T05:08:47.047Z,14.60
2019-04-11T05:09:46.059Z,15.40
2019-04-11T05:10:47.066Z,14.70
2019-04-11T05:11:46.667Z,15.80
2019-04-11T05:12:46.132Z,17.10
2019-04-11T05:13:49.260Z,18.30
2019-04-11T05:14:47.790Z,16.30
2019-04-11T05:15:45.655Z,15.20
2019-04-11T05:16:46.117Z,16.00
2019-04-11T05:17:46.147Z,15.00
2019-04-11T05:18:45.610Z,15.70
2019-04-11T05:19:46.576Z,13.80
2019-04-11T05:20:46.336Z,15.90
2019-04-11T05:21:45.698Z,16.80
2019-04-11T05:22:45.571Z,14.20
2019-04-11T05:23:45.982Z,15.70
2019-04-11T05:24:45.539Z,15.80
2019-04-11T05:25:46.395Z,16.90
2019-04-11T05:26:45.994Z,16.10
2019-04-11T05:27:45.524Z,17.60
2019-04-11T05:28:45.783Z,14.60
2019-04-11T05:29:45.887Z,15.40
2019-04-11T05:30:45.494Z,15.50
2019-04-11T05:31:45.470Z,16.30
2019-04-11T05:32:45.467Z,15.70
2019-04-11T05:33:45.679Z,15.00
2019-04-11T05:34:45.666Z,16.60
2019-04-11T05:35:45.453Z,16.10
2019-04-11T05:36:45.442Z,17.30
2019-04-11T05:37:45.418Z,16.70
2019-04-11T05:38:46.382Z,18.10
2019-04-11T05:39:45.382Z,15.30
2019-04-11T05:40:46.121Z,16.40
2019-04-11T05:41:48.060Z,18.00
2019-04-11T05:42:51.245Z,17.40
2019-04-11T05:43:47.379Z,20.20
2019-04-11T05:44:45.362Z,16.30
2019-04-11T05:45:45.771Z,17.90
2019-04-11T05:46:52.411Z,17.10
2019-04-11T05:47:50.907Z,17.40
2019-04-11T05:48:47.224Z,16.60
2019-04-11T05:49:46.542Z,16.00
2019-04-11T05:50:48.432Z,15.40
2019-04-11T05:51:47.604Z,17.00
2019-04-11T05:52:45.249Z,18.60
2019-04-11T05:53:46.072Z,19.60
2019-04-11T05:54:48.913Z,15.40
2019-04-11T05:55:46.874Z,16.30
2019-04-11T05:56:46.451Z,17.00
2019-04-11T05:57:46.913Z,16.30
2019-04-11T05:58:47.380Z,16.60
2019-04-11T05:59:48.759Z,16.70
2019-04-11T06:00:46.512Z,16.70
2019-04-11T06:01:45.155Z,16.70
2019-04-11T06:02:45.634Z,15.90
2019-04-11T06:03:45.839Z,16.80
2019-04-11T06:04:48.912Z,17.70
2019-04-11T06:05:45.139Z,17.30
2019-04-11T06:06:45.104Z,15.50
2019-04-11T06:07:47.643Z,16.50
2019-04-11T06:08:46.179Z,16.50
2019-04-11T06:09:46.161Z,16.80
2019-04-11T06:10:46.456Z,17.20
2019-04-11T06:11:45.306Z,16.20
2019-04-11T06:12:45.533Z,16.70
2019-04-11T06:13:45.031Z,15.90
2019-04-11T06:14:45.026Z,17.10
2019-04-11T06:15:45.034Z,16.20
2019-04-11T06:16:49.481Z,18.40
2019-04-11T06:17:46.214Z,17.70
2019-04-11T06:18:45.850Z,16.20
2019-04-11T06:19:45.847Z,16.50
2019-04-11T06:20:45.227Z,17.20
2019-04-11T06:21:44.953Z,15.60
2019-04-11T06:22:45.604Z,16.60
2019-04-11T06:23:45.668Z,16.20
2019-04-11T06:24:44.913Z,15.90
2019-04-11T06:25:46.786Z,16.80
2019-04-11T06:26:45.020Z,18.30
2019-04-11T06:27:45.553Z,18.90
2019-04-11T06:28:44.869Z,17.40
2019-04-11T06:29:45.187Z,15.90
2019-04-11T06:30:44.857Z,16.30
2019-04-11T06:31:45.403Z,16.50
2019-04-11T06:32:45.851Z,21.20
2019-04-11T06:33:44.905Z,15.70
2019-04-11T06:34:44.820Z,19.30
2019-04-11T06:35:44.793Z,16.60
2019-04-11T06:36:45.245Z,14.80
2019-04-11T06:37:45.683Z,17.60
2019-04-11T06:38:44.970Z,14.60
2019-04-11T06:39:45.323Z,15.70
2019-04-11T06:40:44.739Z,17.00
2019-04-11T06:41:44.739Z,16.80
2019-04-11T06:42:45.513Z,20.00
2019-04-11T06:43:44.730Z,16.30
2019-04-11T06:44:45.951Z,16.40
2019-04-11T06:45:44.692Z,16.40
2019-04-11T06:46:53.893Z,18.70
2019-04-11T06:47:45.666Z,19.30
2019-04-11T06:48:45.501Z,15.40
2019-04-11T06:49:44.688Z,17.10
2019-04-11T06:50:44.639Z,16.90
2019-04-11T06:51:44.622Z,17.30
2019-04-11T06:52:45.345Z,16.30
2019-04-11T06:53:44.629Z,18.10
2019-04-11T06:54:45.408Z,17.40
2019-04-11T06:55:44.774Z,16.20
2019-04-11T06:56:45.475Z,18.90
2019-04-11T06:57:45.820Z,15.30
2019-04-11T06:58:45.755Z,18.40
2019-04-11T06:59:44.907Z,18.10
2019-04-11T07:00:45.293Z,18.50
2019-04-11T07:01:45.426Z,18.10
2019-04-11T07:02:44.552Z,18.10
2019-04-11T07:03:44.987Z,17.40
2019-04-11T07:04:44.485Z,16.50
2019-04-11T07:05:44.475Z,17.60
2019-04-11T07:06:44.467Z,17.00
2019-04-11T07:07:45.125Z,16.80
2019-04-11T07:08:44.792Z,17.30
2019-04-11T07:09:45.007Z,17.40
2019-04-11T07:10:44.698Z,17.60
2019-04-11T07:11:44.827Z,15.80
2019-04-11T07:12:44.406Z,15.60
2019-04-11T07:13:45.473Z,15.60
2019-04-11T07:14:45.507Z,14.40
2019-04-11T07:15:44.365Z,16.30
2019-04-11T07:16:44.666Z,17.20
2019-04-11T07:17:44.355Z,19.60
2019-04-11T07:18:44.346Z,16.30
2019-04-11T07:19:44.479Z,16.50
2019-04-11T07:20:45.564Z,13.80
2019-04-11T07:21:44.318Z,16.90
2019-04-11T07:22:44.293Z,18.50
2019-04-11T07:23:44.736Z,15.60
2019-04-11T07:24:45.291Z,18.20
2019-04-11T07:25:45.154Z,15.70
2019-04-11T07:26:44.253Z,20.80
2019-04-11T07:27:45.079Z,15.40
2019-04-11T07:28:44.229Z,18.10
2019-04-11T07:29:44.322Z,16.70
2019-04-11T07:30:45.239Z,15.50
2019-04-11T07:31:44.351Z,16.10
2019-04-11T07:32:45.089Z,18.70
2019-04-11T07:33:45.071Z,16.70
2019-04-11T07:34:44.176Z,17.30
2019-04-11T07:35:45.155Z,17.20
2019-04-11T07:36:44.167Z,16.40
2019-04-11T07:37:44.719Z,16.00
2019-04-11T07:38:45.482Z,14.40
2019-04-11T07:39:45.014Z,17.40
2019-04-11T07:40:44.105Z,16.40
2019-04-11T07:41:45.610Z,15.40
2019-04-11T07:42:44.109Z,17.00
2019-04-11T07:43:44.072Z,12.70
2019-04-11T07:44:45.135Z,14.90
2019-04-11T07:45:44.055Z,14.30
2019-04-11T07:46:44.086Z,14.10
2019-04-11T07:47:44.041Z,18.00
2019-04-11T07:48:44.708Z,15.70
2019-04-11T07:49:44.984Z,15.80
2019-04-11T07:50:44.417Z,16.80
2019-04-11T07:51:45.036Z,15.60
2019-04-11T07:52:44.824Z,17.70
2019-04-11T07:53:43.967Z,17.20
2019-04-11T07:54:43.965Z,14.20
2019-04-11T07:55:44.459Z,14.00
2019-04-11T07:56:44.268Z,13.60
2019-04-11T07:57:44.731Z,17.70
2019-04-11T07:58:43.916Z,16.00
2019-04-11T07:59:43.904Z,15.90
2019-04-11T08:00:47.221Z,15.90
2019-04-11T08:01:44.881Z,15.10
2019-04-11T08:02:43.890Z,15.60
2019-04-11T08:03:44.645Z,15.90
2019-04-11T08:04:43.853Z,16.80
2019-04-11T08:05:44.630Z,18.30
2019-04-11T08:06:43.843Z,16.20
2019-04-11T08:07:44.832Z,14.70
2019-04-11T08:08:43.812Z,16.00
2019-04-11T08:09:43.914Z,15.40
2019-04-11T08:10:43.802Z,17.70
2019-04-11T08:11:44.261Z,16.70
2019-04-11T08:12:43.809Z,15.10
2019-04-11T08:13:44.822Z,17.30
2019-04-11T08:14:44.608Z,20.80
2019-04-11T08:15:43.942Z,14.50
2019-04-11T08:16:44.879Z,14.60
2019-04-11T08:17:44.478Z,15.90
2019-04-11T08:18:43.724Z,14.40
2019-04-11T08:19:43.835Z,16.00
2019-04-11T08:20:43.686Z,17.10
2019-04-11T08:21:44.083Z,15.00
2019-04-11T08:22:43.664Z,14.70
2019-04-11T08:23:45.707Z,15.10
2019-04-11T08:24:44.802Z,16.00
2019-04-11T08:25:43.631Z,15.70
2019-04-11T08:26:44.365Z,15.70
2019-04-11T08:27:56.018Z,17.80
2019-04-11T08:28:45.625Z,13.70
2019-04-11T08:29:44.360Z,13.60
2019-04-11T08:30:43.581Z,17.70
2019-04-11T08:31:44.528Z,16.50
2019-04-11T08:32:44.223Z,15.60
2019-04-11T08:33:43.559Z,14.20
2019-04-11T08:34:43.775Z,12.70
2019-04-11T08:35:44.101Z,14.90
2019-04-11T08:36:44.187Z,13.20
2019-04-11T08:37:43.507Z,13.40
2019-04-11T08:38:44.613Z,12.50
2019-04-11T08:39:43.503Z,13.90
2019-04-11T08:40:43.472Z,12.00
2019-04-11T08:41:44.066Z,14.10
2019-04-11T08:42:43.455Z,13.10
2019-04-11T08:43:43.449Z,14.10
2019-04-11T08:44:45.179Z,14.00
2019-04-11T08:45:44.448Z,15.40
2019-04-11T08:46:43.416Z,14.60
2019-04-11T08:47:47.583Z,12.80
2019-04-11T08:48:45.294Z,14.20
2019-04-11T08:49:43.380Z,11.70
2019-04-11T08:50:43.421Z,14.20
2019-04-11T08:51:43.357Z,13.50
2019-04-11T08:52:44.414Z,12.50
2019-04-11T08:53:43.335Z,13.50
2019-04-11T08:54:43.842Z,13.40
2019-04-11T08:55:50.116Z,14.10
2019-04-11T08:56:45.385Z,14.30
2019-04-11T08:57:44.384Z,13.70
2019-04-11T08:58:43.284Z,15.50
2019-04-11T08:59:43.991Z,15.40
2019-04-11T09:00:43.289Z,12.50
2019-04-11T09:01:44.301Z,14.20
2019-04-11T09:02:43.241Z,13.70
2019-04-11T09:03:44.084Z,13.20
2019-04-11T09:04:43.222Z,12.10
2019-04-11T09:05:43.208Z,13.10
2019-04-11T09:06:43.228Z,12.20
2019-04-11T09:07:43.535Z,12.90
2019-04-11T09:08:43.187Z,13.20
2019-04-11T09:09:43.258Z,12.20
2019-04-11T09:10:44.288Z,14.40
2019-04-11T09:11:43.205Z,12.80
2019-04-11T09:12:43.141Z,14.50
2019-04-11T09:13:43.998Z,14.40
2019-04-11T09:14:44.311Z,13.00
2019-04-11T09:15:43.288Z,13.00
2019-04-11T09:16:43.093Z,14.90
2019-04-11T09:17:55.208Z,12.30
2019-04-11T09:18:44.145Z,12.00
2019-04-11T09:19:43.120Z,12.50
2019-04-11T09:20:43.424Z,14.40
2019-04-11T09:21:43.051Z,13.70
2019-04-11T09:22:43.062Z,12.30
2019-04-11T09:23:43.973Z,12.40
2019-04-11T09:24:43.237Z,14.10
2019-04-11T09:25:43.504Z,16.30
2019-04-11T09:26:42.994Z,13.50
2019-04-11T09:27:42.995Z,12.10
2019-04-11T09:28:44.074Z,12.90
2019-04-11T09:29:43.024Z,14.50
2019-04-11T09:30:43.159Z,15.60
2019-04-11T09:31:43.897Z,12.50
2019-04-11T09:32:42.953Z,15.30
2019-04-11T09:33:42.918Z,14.70
2019-04-11T09:34:44.038Z,12.60
2019-04-11T09:35:43.666Z,13.40
2019-04-11T09:36:42.967Z,12.60
2019-04-11T09:37:44.249Z,12.40
2019-04-11T09:38:42.882Z,13.40
2019-04-11T09:39:43.510Z,13.60
2019-04-11T09:40:43.764Z,13.20
2019-04-11T09:41:42.835Z,12.90
2019-04-11T09:42:43.097Z,13.40
2019-04-11T09:43:42.827Z,13.60
2019-04-11T09:44:42.802Z,12.70
2019-04-11T09:45:43.920Z,15.40
2019-04-11T09:46:42.830Z,14.40
2019-04-11T09:47:42.764Z,11.20
2019-04-11T09:48:44.142Z,13.70
2019-04-11T09:49:42.948Z,12.50
2019-04-11T09:50:42.776Z,10.50
2019-04-11T09:51:42.731Z,13.70
2019-04-11T09:52:42.712Z,13.80
2019-04-11T09:53:43.039Z,13.60
2019-04-11T09:54:42.693Z,12.70
2019-04-11T09:55:43.705Z,18.60
2019-04-11T09:56:43.014Z,14.20
2019-04-11T09:57:42.659Z,12.10
2019-04-11T09:58:42.650Z,14.70
2019-04-11T09:59:42.665Z,14.40
2019-04-11T10:00:43.127Z,12.20
2019-04-11T10:01:42.976Z,12.40
2019-04-11T10:02:42.606Z,11.70
2019-04-11T10:03:43.001Z,10.20
2019-04-11T10:04:50.185Z,14.20
2019-04-11T10:05:42.669Z,14.80
2019-04-11T10:06:42.566Z,11.40
2019-04-11T10:07:42.560Z,13.70
2019-04-11T10:08:43.668Z,13.90
2019-04-11T10:09:42.541Z,13.70
2019-04-11T10:10:44.591Z,14.80
2019-04-11T10:11:42.514Z,13.00
2019-04-11T10:12:42.611Z,13.50
2019-04-11T10:13:42.815Z,13.90
2019-04-11T10:14:43.674Z,12.00
2019-04-11T10:15:43.190Z,13.10
2019-04-11T10:16:42.475Z,12.40
2019-04-11T10:17:42.683Z,11.90
2019-04-11T10:18:43.942Z,14.70
2019-04-11T10:19:42.445Z,13.70
2019-04-11T10:20:42.624Z,14.00
2019-04-11T10:21:43.594Z,13.00
2019-04-11T10:22:43.790Z,12.30
2019-04-11T10:23:43.034Z,15.20
2019-04-11T10:24:42.934Z,13.40
2019-04-11T10:25:43.374Z,14.00
2019-04-11T10:26:42.426Z,12.20
2019-04-11T10:27:42.353Z,13.10
2019-04-11T10:28:42.341Z,12.10
2019-04-11T10:29:42.364Z,17.00
2019-04-11T10:30:42.323Z,12.90
2019-04-11T10:31:42.343Z,13.60
2019-04-11T10:32:43.365Z,14.90
2019-04-11T10:33:42.283Z,12.50
2019-04-11T10:34:42.282Z,14.20
2019-04-11T10:35:42.774Z,14.10
2019-04-11T10:36:43.226Z,12.80
2019-04-11T10:37:42.274Z,15.80
2019-04-11T10:38:42.243Z,15.00
2019-04-11T10:39:42.227Z,13.10
2019-04-11T10:40:42.207Z,11.20
2019-04-11T10:41:42.195Z,12.70
2019-04-11T10:42:42.520Z,14.40
2019-04-11T10:43:42.563Z,12.00
2019-04-11T10:44:42.365Z,10.60
2019-04-11T10:45:42.733Z,13.20
2019-04-11T10:46:42.185Z,13.30
2019-04-11T10:47:42.162Z,12.20
2019-04-11T10:48:45.016Z,13.20
2019-04-11T10:49:42.166Z,12.20
2019-04-11T10:50:42.425Z,13.60
2019-04-11T10:51:42.344Z,13.40
2019-04-11T10:52:42.532Z,13.10
2019-04-11T10:53:42.075Z,13.00
2019-04-11T10:54:42.068Z,13.50
2019-04-11T10:55:42.063Z,14.20
2019-04-11T10:56:43.173Z,10.70
2019-04-11T10:57:42.384Z,22.20
2019-04-11T10:58:42.717Z,16.20
2019-04-11T10:59:42.941Z,12.50
2019-04-11T11:00:43.142Z,14.00
2019-04-11T11:01:42.309Z,12.70
2019-04-11T11:02:41.977Z,14.20
2019-04-11T11:03:43.005Z,13.30
2019-04-11T11:04:43.005Z,11.80
2019-04-11T11:05:42.912Z,14.40
2019-04-11T11:06:42.035Z,13.50
2019-04-11T11:07:42.503Z,14.80
2019-04-11T11:08:41.936Z,12.90
2019-04-11T11:09:42.190Z,12.70
2019-04-11T11:10:41.935Z,14.70
2019-04-11T11:11:41.873Z,13.70
2019-04-11T11:12:41.866Z,13.60
2019-04-11T11:13:42.440Z,13.00
2019-04-11T11:14:42.893Z,11.30
2019-04-11T11:15:41.980Z,13.00
2019-04-11T11:16:44.866Z,13.60
2019-04-11T11:18:00.974Z,12.00
2019-04-11T11:19:14.963Z,14.60
2019-04-11T11:19:55.235Z,16.40
2019-04-11T11:20:51.350Z,13.00
2019-04-11T11:21:43.029Z,13.10
2019-04-11T11:22:42.969Z,12.40
2019-04-11T11:23:42.830Z,11.70
2019-04-11T11:24:42.097Z,13.00
2019-04-11T11:25:42.269Z,15.50
2019-04-11T11:26:41.724Z,13.70
2019-04-11T11:27:41.721Z,14.30
2019-04-11T11:28:43.040Z,14.10
2019-04-11T11:29:42.957Z,16.40
2019-04-11T11:30:41.696Z,13.90
2019-04-11T11:31:42.745Z,14.90
2019-04-11T11:32:41.657Z,15.70
2019-04-11T11:33:42.671Z,16.10
2019-04-11T11:34:41.653Z,13.10
2019-04-11T11:35:42.808Z,14.30
2019-04-11T11:36:41.665Z,14.30
2019-04-11T11:37:41.725Z,16.60
2019-04-11T11:38:41.908Z,17.00
2019-04-11T11:39:41.600Z,14.40
2019-04-11T11:40:43.208Z,14.20
2019-04-11T11:41:42.526Z,13.70
2019-04-11T11:42:42.152Z,16.00
2019-04-11T11:43:41.537Z,14.60
2019-04-11T11:44:41.551Z,15.20
2019-04-11T11:45:41.662Z,15.70
2019-04-11T11:46:42.632Z,14.50
2019-04-11T11:47:41.997Z,14.20
2019-04-11T11:48:41.784Z,12.90
2019-04-11T11:49:51.706Z,14.20
2019-04-11T11:50:42.734Z,15.70
2019-04-11T11:52:57.439Z,12.30
2019-04-11T11:53:57.448Z,14.80
2019-04-11T11:54:57.168Z,14.50
2019-04-11T11:55:57.905Z,14.80
2019-04-11T11:56:58.130Z,14.20
2019-04-11T11:57:57.300Z,16.30
2019-04-11T11:58:58.577Z,16.80
2019-04-11T11:59:57.104Z,12.80
2019-04-11T12:00:58.679Z,14.80
2019-04-11T12:01:57.062Z,15.40
2019-04-11T12:02:57.053Z,13.50
2019-04-11T12:04:00.136Z,15.10
2019-04-11T12:04:57.058Z,14.10
2019-04-11T12:05:57.040Z,15.20
2019-04-11T12:07:01.829Z,14.10
2019-04-11T12:07:58.209Z,15.10
2019-04-11T12:08:58.138Z,16.60
2019-04-11T12:09:56.976Z,17.70
2019-04-11T12:10:57.571Z,13.80
2019-04-11T12:11:57.056Z,14.90
2019-04-11T12:12:56.951Z,16.90
2019-04-11T12:13:57.885Z,16.80
2019-04-11T12:14:56.923Z,17.40
2019-04-11T12:15:57.372Z,15.20
2019-04-11T12:17:01.341Z,13.50
2019-04-11T12:17:57.897Z,16.00
2019-04-11T12:18:56.879Z,19.90
2019-04-11T12:20:02.576Z,17.90
2019-04-11T12:20:59.198Z,15.10
2019-04-11T12:21:56.852Z,16.60
2019-04-11T12:22:57.018Z,13.90
2019-04-11T12:24:02.567Z,14.40
2019-04-11T12:24:58.674Z,15.60
2019-04-11T12:25:57.733Z,13.80
2019-04-11T12:26:57.070Z,15.10
2019-04-11T12:27:56.782Z,13.80
2019-04-11T12:28:57.591Z,14.60
2019-04-11T12:29:57.569Z,17.80
2019-04-11T12:31:00.592Z,14.70
2019-04-11T12:31:58.442Z,15.20
2019-04-11T12:32:57.089Z,14.00
2019-04-11T12:33:57.580Z,13.50
2019-04-11T12:34:57.728Z,16.70
2019-04-11T12:35:58.943Z,14.80
2019-04-11T12:36:56.938Z,15.30
2019-04-11T12:37:57.820Z,16.70
2019-04-11T12:38:56.665Z,15.20
2019-04-11T12:39:56.650Z,17.50
2019-04-11T12:40:56.651Z,14.70
2019-04-11T12:41:56.631Z,15.80
2019-04-11T12:42:56.639Z,13.10
2019-04-11T12:43:56.609Z,16.00
2019-04-11T12:44:59.333Z,15.10
2019-04-11T12:45:56.604Z,14.40
2019-04-11T12:46:56.577Z,14.70
2019-04-11T12:47:56.583Z,15.50
2019-04-11T12:48:56.551Z,13.70
2019-04-11T12:49:56.547Z,14.00
2019-04-11T12:50:56.543Z,16.10
2019-04-11T12:51:56.527Z,17.70
2019-04-11T12:52:56.544Z,15.10
2019-04-11T12:53:56.498Z,13.80
2019-04-11T12:54:56.491Z,15.40
2019-04-11T12:55:56.489Z,13.80